Time;durP1;ratioP1;P1;durP2;ratioP2;P2;SDS_P1;SDS_P2;PMS_P1;PMS_P2;Temp;Humidity;BMP_temperature;BMP_pressure;BME280_temperature;BME280_humidity;BME280_pressure;Samples;Min_cycle;Max_cycle;Signal;HPM_P1;HPM_P2
2021/04/15 00:00:40;;;;;;;5.43;4.13;;;-0.60;67.60;;;;;;5017042;28;20474;-84
2021/04/15 00:03:15;;;;;;;7.87;4.47;;;-0.60;67.40;;;;;;5037437;28;20491;-82
2021/04/15 00:05:41;;;;;;;7.33;3.93;;;-0.60;67.80;;;;;;5034079;28;20486;-82
2021/04/15 00:08:08;;;;;;;5.27;4.77;;;-0.70;67.90;;;;;;5043004;28;20467;-81
2021/04/15 00:10:38;;;;;;;6.87;3.93;;;-0.70;68.30;;;;;;5037026;28;20505;-83
2021/04/15 00:13:06;;;;;;;4.50;4.07;;;-0.80;69.40;;;;;;5041784;28;20949;-81
2021/04/15 00:15:33;;;;;;;5.10;4.20;;;-0.90;70.20;;;;;;5034378;28;20596;-82
2021/04/15 00:17:59;;;;;;;8.53;5.30;;;-0.80;70.10;;;;;;5036923;28;20450;-83
2021/04/15 00:20:27;;;;;;;8.43;5.10;;;-0.80;70.20;;;;;;5032172;28;20547;-84
2021/04/15 00:22:53;;;;;;;9.50;5.70;;;-0.90;69.80;;;;;;5043970;28;20565;-84
2021/04/15 00:25:20;;;;;;;6.40;5.20;;;-0.90;70.70;;;;;;5034429;28;20498;-85
2021/04/15 00:27:47;;;;;;;7.87;5.60;;;-0.90;70.90;;;;;;5040596;28;20454;-82
2021/04/15 00:30:14;;;;;;;5.97;5.37;;;-1.00;71.50;;;;;;5037713;28;20537;-85
2021/04/15 00:32:40;;;;;;;9.00;5.33;;;-1.10;72.90;;;;;;5034734;28;20534;-81
2021/04/15 00:35:08;;;;;;;7.60;5.03;;;-1.00;72.00;;;;;;5037208;28;20533;-82
2021/04/15 00:37:35;;;;;;;7.33;5.20;;;-0.90;71.60;;;;;;5036420;28;20489;-83
2021/04/15 00:40:02;;;;;;;5.67;5.07;;;-1.00;71.70;;;;;;5037793;28;20527;-84
2021/04/15 00:42:29;;;;;;;5.53;4.93;;;-1.00;72.50;;;;;;5038502;28;20469;-83
2021/04/15 00:44:55;;;;;;;5.60;5.07;;;-1.00;72.60;;;;;;5038527;28;20482;-82
2021/04/15 00:47:27;;;;;;;7.07;5.83;;;-1.10;73.00;;;;;;5037339;28;20502;-83
2021/04/15 00:49:57;;;;;;;8.07;5.17;;;-1.00;73.60;;;;;;5040291;28;20447;-83
2021/04/15 00:52:26;;;;;;;8.30;5.47;;;-1.10;73.60;;;;;;5044686;28;20451;-83
2021/04/15 00:54:58;;;;;;;7.20;4.80;;;-1.20;74.60;;;;;;5041693;28;20482;-82
2021/04/15 00:57:28;;;;;;;6.60;5.20;;;-1.20;74.50;;;;;;5039582;28;20513;-84
2021/04/15 00:59:55;;;;;;;7.20;5.23;;;-1.10;73.80;;;;;;5039185;28;20450;-83
2021/04/15 01:02:23;;;;;;;6.10;4.73;;;-1.10;73.80;;;;;;5037434;28;20491;-82
2021/04/15 01:04:57;;;;;;;7.30;4.70;;;-1.10;74.70;;;;;;5041747;28;20474;-81
2021/04/15 01:07:24;;;;;;;7.23;5.33;;;-1.20;74.50;;;;;;5043981;28;20625;-85
2021/04/15 01:09:53;;;;;;;10.87;6.03;;;-1.20;74.60;;;;;;5052601;28;20458;-82
2021/04/15 01:12:46;;;;;;;8.90;6.37;;;-1.40;75.80;;;;;;5039473;28;20456;-82
2021/04/15 01:15:26;;;;;;;9.10;6.97;;;-1.30;76.50;;;;;;5055128;28;20439;-83
2021/04/15 01:17:57;;;;;;;6.90;6.20;;;-1.30;76.40;;;;;;5046242;28;20446;-83
2021/04/15 01:20:51;;;;;;;9.20;5.90;;;-1.30;76.90;;;;;;5060918;28;20446;-82
2021/04/15 01:23:24;;;;;;;10.30;6.07;;;-1.30;77.10;;;;;;5051584;28;20439;-81
2021/04/15 01:26:43;;;;;;;8.97;6.50;;;-1.30;76.90;;;;;;5054257;28;20443;-82
2021/04/15 01:29:19;;;;;;;8.10;5.67;;;-1.30;77.30;;;;;;5032740;28;20473;-83
2021/04/15 01:31:59;;;;;;;5.43;4.80;;;-1.40;78.00;;;;;;5050781;28;20474;-85
2021/04/15 01:34:33;;;;;;;5.90;5.30;;;-1.50;79.40;;;;;;5051352;28;20470;-86
2021/04/15 01:37:04;;;;;;;9.30;5.20;;;-1.50;78.90;;;;;;5052947;28;20469;-84
2021/04/15 01:39:37;;;;;;;11.40;5.53;;;-1.50;78.80;;;;;;5046270;28;20458;-84
2021/04/15 01:42:08;;;;;;;7.27;6.27;;;-1.60;79.60;;;;;;5055558;28;20549;-81
2021/04/15 01:44:45;;;;;;;9.10;5.47;;;-1.60;80.80;;;;;;5040969;28;20668;-82
2021/04/15 01:47:17;;;;;;;8.00;6.90;;;-1.50;80.10;;;;;;5051224;28;20450;-83
2021/04/15 01:49:47;;;;;;;5.93;4.90;;;-1.60;80.20;;;;;;5047905;28;20439;-82
2021/04/15 01:52:15;;;;;;;9.57;6.30;;;-1.80;81.80;;;;;;5058152;28;20453;-83
2021/04/15 01:54:46;;;;;;;6.53;5.80;;;-1.70;82.00;;;;;;5043926;28;20455;-81
2021/04/15 01:57:18;;;;;;;12.07;6.27;;;-1.60;82.20;;;;;;5045147;28;20921;-83
2021/04/15 01:59:48;;;;;;;7.50;5.93;;;-1.60;82.10;;;;;;5039204;28;20551;-82
2021/04/15 02:02:19;;;;;;;8.73;6.13;;;-1.60;82.20;;;;;;5043207;28;20491;-82
2021/04/15 02:04:51;;;;;;;5.37;4.87;;;-1.60;81.30;;;;;;5041536;28;20451;-82
2021/04/15 02:07:19;;;;;;;9.47;5.63;;;-1.70;82.90;;;;;;5040936;28;20474;-81
2021/04/15 02:09:48;;;;;;;7.60;5.87;;;-1.70;82.40;;;;;;5041477;28;20479;-83
2021/04/15 02:12:19;;;;;;;13.30;5.60;;;-1.80;83.30;;;;;;5029721;28;20480;-84
2021/04/15 02:14:53;;;;;;;8.17;5.87;;;-1.80;83.20;;;;;;5020187;28;20454;-84
2021/04/15 02:17:22;;;;;;;8.70;6.60;;;-1.80;83.20;;;;;;5042569;28;21052;-82
2021/04/15 02:19:53;;;;;;;9.60;6.17;;;-1.70;84.30;;;;;;5039512;28;20458;-82
2021/04/15 02:22:27;;;;;;;10.90;7.10;;;-1.70;82.70;;;;;;5042681;28;20462;-81
2021/04/15 02:25:00;;;;;;;8.40;6.80;;;-1.70;82.60;;;;;;5038739;28;20545;-83
2021/04/15 02:27:37;;;;;;;6.37;5.40;;;-1.80;82.50;;;;;;5039701;28;20457;-82
2021/04/15 02:30:15;;;;;;;8.00;5.60;;;-1.90;83.10;;;;;;5029874;28;20542;-83
2021/04/15 02:32:46;;;;;;;7.40;5.30;;;-1.90;84.20;;;;;;5023494;28;20458;-83
2021/04/15 02:35:21;;;;;;;5.87;5.33;;;-2.00;84.70;;;;;;5037578;28;20448;-83
2021/04/15 02:37:53;;;;;;;9.13;6.50;;;-2.00;86.00;;;;;;5047928;28;21112;-83
2021/04/15 02:40:24;;;;;;;6.37;5.10;;;-1.90;85.20;;;;;;5030231;28;20439;-81
2021/04/15 02:42:53;;;;;;;9.60;6.33;;;-1.80;85.20;;;;;;5048096;28;20456;-83
2021/04/15 02:45:29;;;;;;;5.73;5.00;;;-1.80;84.30;;;;;;5034583;28;20454;-83
2021/04/15 02:48:03;;;;;;;6.17;5.50;;;-1.80;84.70;;;;;;5024993;28;20452;-82
2021/04/15 02:50:31;;;;;;;8.47;6.30;;;-1.80;84.70;;;;;;5041029;28;21256;-82
2021/04/15 02:53:03;;;;;;;7.00;5.70;;;-1.80;84.10;;;;;;5046490;28;20451;-85
2021/04/15 02:55:34;;;;;;;11.37;6.77;;;-1.70;85.30;;;;;;5039872;28;20698;-82
2021/04/15 02:58:05;;;;;;;7.50;5.50;;;-1.70;84.00;;;;;;5038975;28;20968;-83
2021/04/15 03:00:37;;;;;;;6.10;5.50;;;-1.70;84.40;;;;;;5038237;28;20489;-81
2021/04/15 03:03:06;;;;;;;5.90;5.33;;;-1.80;84.50;;;;;;5035841;28;20462;-82
2021/04/15 03:05:37;;;;;;;7.80;6.07;;;-1.90;84.90;;;;;;5041333;28;21023;-85
2021/04/15 03:08:05;;;;;;;12.13;6.60;;;-1.90;85.80;;;;;;5037447;28;20463;-80
2021/04/15 03:10:35;;;;;;;9.27;6.10;;;-1.90;85.50;;;;;;5046319;28;20547;-81
2021/04/15 03:13:08;;;;;;;9.87;5.80;;;-1.90;86.50;;;;;;5044619;28;20977;-83
2021/04/15 03:15:41;;;;;;;6.73;5.40;;;-1.90;86.80;;;;;;5048735;28;20457;-82
2021/04/15 03:18:12;;;;;;;9.87;6.07;;;-2.00;86.60;;;;;;5027860;28;20513;-81
2021/04/15 03:20:46;;;;;;;7.37;5.60;;;-2.00;87.10;;;;;;5039985;28;20485;-82
2021/04/15 03:23:22;;;;;;;5.93;5.33;;;-2.00;88.20;;;;;;5046827;28;20470;-85
2021/04/15 03:25:51;;;;;;;6.97;5.63;;;-2.10;87.80;;;;;;5045212;28;20518;-82
2021/04/15 03:28:26;;;;;;;6.70;5.70;;;-2.20;90.20;;;;;;5045894;28;20488;-82
2021/04/15 03:30:57;;;;;;;6.80;5.63;;;-2.20;90.50;;;;;;5033794;28;21036;-81
2021/04/15 03:33:34;;;;;;;7.07;6.00;;;-2.30;90.80;;;;;;5043368;28;20454;-82
2021/04/15 03:36:06;;;;;;;9.00;6.33;;;-2.30;91.50;;;;;;5044871;28;20439;-86
2021/04/15 03:38:37;;;;;;;6.13;5.30;;;-2.30;91.50;;;;;;5044880;28;20477;-82
2021/04/15 03:41:08;;;;;;;10.73;8.67;;;-2.30;91.80;;;;;;5054428;28;20529;-83
2021/04/15 03:43:40;;;;;;;11.27;7.67;;;-2.30;93.20;;;;;;5051951;28;20949;-84
2021/04/15 03:46:14;;;;;;;10.13;7.10;;;-2.20;91.70;;;;;;5050327;28;20470;-84
2021/04/15 03:48:43;;;;;;;11.73;7.63;;;-2.20;91.30;;;;;;5041851;28;20487;-81
2021/04/15 03:51:12;;;;;;;10.60;7.50;;;-2.10;91.10;;;;;;5034041;28;20443;-83
2021/04/15 03:53:42;;;;;;;11.97;7.70;;;-2.30;91.40;;;;;;5059632;28;20487;-83
2021/04/15 03:56:16;;;;;;;11.80;8.80;;;-2.30;92.40;;;;;;5037683;28;20515;-83
2021/04/15 03:58:46;;;;;;;11.30;8.10;;;-2.40;92.40;;;;;;5050139;28;20526;-87
2021/04/15 04:01:23;;;;;;;13.13;8.20;;;-2.40;93.60;;;;;;5042878;28;20857;-83
2021/04/15 04:04:02;;;;;;;12.47;8.30;;;-2.40;94.30;;;;;;5038304;28;20458;-82
2021/04/15 04:06:31;;;;;;;11.27;8.57;;;-2.30;93.50;;;;;;5038748;28;20471;-82
2021/04/15 04:09:05;;;;;;;10.57;7.73;;;-2.40;92.70;;;;;;5038188;28;20966;-85
2021/04/15 04:11:34;;;;;;;12.00;8.70;;;-2.50;93.40;;;;;;5045962;28;20455;-82
2021/04/15 04:14:05;;;;;;;15.53;9.20;;;-2.50;93.80;;;;;;5042118;28;20836;-83
2021/04/15 04:16:41;;;;;;;10.40;9.10;;;-2.40;94.60;;;;;;5040744;28;20518;-82
2021/04/15 04:19:13;;;;;;;13.93;10.73;;;-2.50;94.10;;;;;;5039842;28;20505;-81
2021/04/15 04:21:50;;;;;;;12.00;8.80;;;-2.50;95.90;;;;;;5046089;28;20525;-82
2021/04/15 04:24:23;;;;;;;13.10;8.00;;;-2.40;95.50;;;;;;5029361;28;20514;-82
2021/04/15 04:26:54;;;;;;;16.73;10.07;;;-2.50;95.30;;;;;;5047770;28;20516;-82
2021/04/15 04:29:30;;;;;;;14.00;8.80;;;-2.50;96.70;;;;;;5047027;28;20580;-83
2021/04/15 04:32:01;;;;;;;10.63;7.90;;;-2.30;97.50;;;;;;5047339;28;20972;-82
2021/04/15 04:34:30;;;;;;;12.90;8.50;;;-2.30;95.00;;;;;;5031472;28;20475;-83
2021/04/15 04:36:57;;;;;;;13.97;8.40;;;-2.40;94.40;;;;;;5033619;28;20519;-82
2021/04/15 04:39:26;;;;;;;12.73;7.53;;;-2.30;94.50;;;;;;5037254;28;20469;-81
2021/04/15 04:42:02;;;;;;;10.40;8.20;;;-2.30;95.00;;;;;;5042491;28;20491;-82
2021/04/15 04:44:38;;;;;;;11.97;7.83;;;-2.20;95.20;;;;;;5046844;28;20453;-82
2021/04/15 04:47:13;;;;;;;15.93;8.60;;;-1.70;94.20;;;;;;5048379;28;21035;-82
2021/04/15 04:49:44;;;;;;;10.23;8.93;;;-1.10;91.40;;;;;;5044764;28;20450;-84
2021/04/15 04:52:18;;;;;;;11.20;9.43;;;-0.70;85.60;;;;;;5028486;28;20469;-85
2021/04/15 04:54:45;;;;;;;11.93;9.30;;;-0.40;80.70;;;;;;5050937;28;20465;-83
2021/04/15 04:57:16;;;;;;;20.57;9.93;;;0.20;78.80;;;;;;5051719;28;20528;-82
2021/04/15 04:59:48;;;;;;;18.67;12.60;;;0.90;74.70;;;;;;5038793;28;20972;-84
2021/04/15 05:02:16;;;;;;;17.43;12.03;;;0.80;72.60;;;;;;5036975;28;20495;-85
2021/04/15 05:04:43;;;;;;;17.40;10.73;;;1.40;71.90;;;;;;5048203;28;20500;-83
2021/04/15 05:07:20;;;;;;;18.80;14.17;;;1.80;69.50;;;;;;5039086;28;20457;-82
2021/04/15 05:09:48;;;;;;;10.70;7.80;;;1.10;69.00;;;;;;5040112;28;20533;-84
2021/04/15 05:12:18;;;;;;;10.50;8.10;;;0.70;70.90;;;;;;5036343;28;20468;-84
2021/04/15 05:14:45;;;;;;;11.20;7.27;;;0.30;73.60;;;;;;5043688;28;20511;-83
2021/04/15 05:17:23;;;;;;;21.43;8.83;;;0.40;73.80;;;;;;5048687;28;20489;-83
2021/04/15 05:19:51;;;;;;;52.93;13.67;;;0.80;73.20;;;;;;5048227;28;20474;-81
2021/04/15 05:22:23;;;;;;;7.63;6.83;;;1.20;71.20;;;;;;5047331;28;20562;-81
2021/04/15 05:24:54;;;;;;;13.97;8.63;;;1.50;70.40;;;;;;5049389;28;20457;-83
2021/04/15 05:27:22;;;;;;;7.47;5.97;;;1.70;70.80;;;;;;5048163;28;20453;-82
2021/04/15 05:30:00;;;;;;;8.73;7.00;;;1.60;69.60;;;;;;5050974;28;20471;-84
2021/04/15 05:32:28;;;;;;;9.37;6.80;;;0.70;71.50;;;;;;5052609;28;20522;-79
2021/04/15 05:34:59;;;;;;;11.90;7.10;;;0.30;73.80;;;;;;5063272;28;20461;-79
2021/04/15 05:37:28;;;;;;;9.40;7.90;;;0.00;76.80;;;;;;5054012;28;20474;-79
2021/04/15 05:39:57;;;;;;;7.70;6.90;;;-0.10;79.20;;;;;;5050208;28;20517;-81
2021/04/15 05:42:29;;;;;;;11.90;7.33;;;-0.10;79.50;;;;;;5057156;28;20516;-80
2021/04/15 05:45:01;;;;;;;9.80;7.03;;;-0.10;77.80;;;;;;5037403;28;20504;-80
2021/04/15 05:47:32;;;;;;;7.33;6.50;;;0.00;78.30;;;;;;5032451;28;21168;-79
2021/04/15 05:50:04;;;;;;;10.00;7.80;;;0.10;79.10;;;;;;5029843;28;20928;-79
2021/04/15 05:52:36;;;;;;;9.83;7.43;;;0.10;78.40;;;;;;5040436;28;20459;-81
2021/04/15 05:55:11;;;;;;;11.70;6.90;;;0.20;78.30;;;;;;5037269;28;20459;-79
2021/04/15 05:57:40;;;;;;;8.47;7.17;;;0.40;77.90;;;;;;5040933;28;20467;-84
2021/04/15 06:00:23;;;;;;;37.57;13.93;;;0.40;77.00;;;;;;5039269;28;20521;-86
2021/04/15 06:02:54;;;;;;;11.60;7.10;;;0.50;76.10;;;;;;5030174;28;20474;-84
2021/04/15 06:05:26;;;;;;;8.90;6.50;;;0.50;76.00;;;;;;5038977;28;20466;-83
2021/04/15 06:07:56;;;;;;;13.10;8.17;;;0.30;76.60;;;;;;5044057;28;20506;-85
2021/04/15 06:10:26;;;;;;;12.73;6.83;;;0.60;76.30;;;;;;5027611;28;20601;-85
2021/04/15 06:13:00;;;;;;;11.13;6.70;;;0.70;75.60;;;;;;5042447;28;20554;-85
2021/04/15 06:15:36;;;;;;;10.10;6.73;;;1.20;73.60;;;;;;5037421;28;20504;-86
2021/04/15 06:18:13;;;;;;;10.00;7.57;;;0.80;74.40;;;;;;5045987;28;20669;-84
2021/04/15 06:20:43;;;;;;;8.93;7.20;;;0.70;73.40;;;;;;5040894;28;20462;-84
2021/04/15 06:23:16;;;;;;;8.00;6.70;;;1.00;74.00;;;;;;5046260;28;20446;-84
2021/04/15 06:25:49;;;;;;;14.33;7.03;;;1.20;73.00;;;;;;5038735;28;20469;-84
2021/04/15 06:28:45;;;;;;;10.37;7.10;;;1.30;72.30;;;;;;5031739;28;20587;-85
2021/04/15 06:31:23;;;;;;;9.93;6.93;;;1.70;70.60;;;;;;5025946;28;20459;-85
2021/04/15 06:33:57;;;;;;;8.23;6.60;;;1.60;70.50;;;;;;5050656;28;20466;-84
2021/04/15 06:36:31;;;;;;;11.00;6.73;;;1.10;71.20;;;;;;5040264;28;20475;-86
2021/04/15 06:39:04;;;;;;;11.20;7.60;;;1.40;70.90;;;;;;5044816;28;20451;-81
2021/04/15 06:42:02;;;;;;;10.70;8.00;;;1.30;72.50;;;;;;5037647;28;20467;-80
2021/04/15 06:45:04;;;;;;;10.30;7.10;;;1.70;71.00;;;;;;5034718;28;20463;-80
2021/04/15 06:47:53;;;;;;;14.33;9.40;;;1.60;70.10;;;;;;5043744;28;20472;-82
2021/04/15 06:50:31;;;;;;;12.83;9.07;;;1.60;70.70;;;;;;5038592;28;20451;-82
2021/04/15 06:53:13;;;;;;;10.60;8.10;;;2.00;70.40;;;;;;5039389;28;20461;-80
2021/04/15 06:55:51;;;;;;;10.73;8.20;;;2.00;70.20;;;;;;5039547;28;20459;-83
2021/04/15 06:58:41;;;;;;;10.73;7.75;;;2.00;70.30;;;;;;5042624;28;20538;-81
2021/04/15 07:01:24;;;;;;;9.50;7.57;;;2.70;68.30;;;;;;5028069;28;20224;-83
2021/04/15 07:04:14;;;;;;;15.60;7.57;;;2.30;67.70;;;;;;5040521;28;20456;-83
2021/04/15 07:06:52;;;;;;;7.73;6.87;;;3.10;67.10;;;;;;5040571;28;20479;-84
2021/04/15 07:09:50;;;;;;;13.43;8.70;;;2.90;66.80;;;;;;5047733;28;20474;-81
2021/04/15 07:12:40;;;;;;;16.70;9.00;;;2.70;67.30;;;;;;5046326;28;20472;-82
2021/04/15 07:15:29;;;;;;;13.30;8.40;;;2.60;67.50;;;;;;5049886;28;20456;-83
2021/04/15 07:18:10;;;;;;;12.35;9.00;;;3.10;66.70;;;;;;5048558;28;20449;-84
2021/04/15 07:21:03;;;;;;;11.67;8.20;;;3.20;65.80;;;;;;5056572;28;20190;-85
2021/04/15 07:24:04;;;;;;;9.73;8.20;;;3.20;66.30;;;;;;5300558;23;20989;-85
2021/04/15 08:53:17;;;;;;;9.07;8.17;;;5.30;59.70;;;;;;5763624;22;20533;-94
2021/04/15 09:11:19;;;;;;;9.73;7.13;;;6.10;57.20;;;;;;5047665;28;20443;-93
2021/04/15 09:14:08;;;;;;;8.77;7.88;;;6.40;55.40;;;;;;5039608;28;20445;-92
2021/04/15 09:20:00;;;;;;;7.70;6.67;;;6.90;52.50;;;;;;5045723;28;20452;-91
2021/04/15 09:23:14;;;;;;;6.43;5.73;;;7.20;52.40;;;;;;5021296;28;20492;-92
2021/04/15 09:25:55;;;;;;;6.60;5.40;;;7.80;51.60;;;;;;5038323;28;20463;-92
2021/04/15 09:28:40;;;;;;;7.57;4.83;;;7.40;49.00;;;;;;5003440;28;20466;-91
2021/04/15 09:31:55;;;;;;;8.47;5.03;;;7.60;48.40;;;;;;5030935;28;20441;-92
2021/04/15 09:35:10;;;;;;;6.50;5.30;;;7.70;47.60;;;;;;5035004;28;20434;-93
2021/04/15 09:38:18;;;;;;;9.70;5.90;;;7.50;48.60;;;;;;5027296;28;20479;-91
2021/04/15 09:51:22;;;;;;;13.13;7.33;;;6.80;51.60;;;;;;5028921;28;20802;-93
2021/04/15 10:00:25;;;;;;;7.73;6.93;;;7.00;50.30;;;;;;5020418;28;20198;-93
2021/04/15 10:07:48;;;;;;;8.30;7.20;;;6.60;51.30;;;;;;5032734;28;20281;-92
2021/04/15 10:21:58;;;;;;;7.77;5.63;;;7.80;48.50;;;;;;4941131;29;20488;-92
2021/04/15 10:24:55;;;;;;;6.43;5.73;;;7.80;49.20;;;;;;4944925;29;20520;-92
2021/04/15 13:04:20;;;;;;;6.30;5.70;;;8.70;46.30;;;;;;6197575;23;20440;-93
2021/04/15 13:52:46;;;;;;;4.97;4.30;;;7.80;44.00;;;;;;6041719;23;20429;-93
2021/04/15 13:59:14;;;;;;;4.90;3.87;;;7.90;43.10;;;;;;6181120;23;20437;-94
2021/04/15 14:19:39;;;;;;;4.53;3.80;;;8.20;37.10;;;;;;6167897;23;20447;-93
2021/04/15 15:04:22;;;;;;;1.30;1.20;;;9.20;31.20;;;;;;6024656;23;20429;-92
2021/04/15 15:17:09;;;;;;;1.60;1.50;;;8.80;31.50;;;;;;6178912;23;20443;-84
2021/04/15 15:19:39;;;;;;;1.73;1.47;;;8.90;32.70;;;;;;6175875;23;20163;-86
2021/04/15 15:22:28;;;;;;;2.03;1.83;;;8.80;33.10;;;;;;6169333;23;20420;-88
2021/04/15 15:24:56;;;;;;;3.00;1.53;;;8.80;33.30;;;;;;6141039;23;20468;-86
2021/04/15 15:27:25;;;;;;;3.03;1.80;;;8.60;32.50;;;;;;6133250;23;20720;-85
2021/04/15 15:29:59;;;;;;;3.20;1.57;;;8.80;32.10;;;;;;6140638;23;20413;-87
2021/04/15 15:32:29;;;;;;;1.40;1.30;;;8.90;32.10;;;;;;6141119;23;20406;-88
2021/04/15 15:34:59;;;;;;;1.53;1.37;;;8.30;31.70;;;;;;6145654;23;20413;-89
2021/04/15 15:37:34;;;;;;;2.10;1.70;;;8.30;32.40;;;;;;6143654;23;20423;-86
2021/04/15 15:40:30;;;;;;;2.27;1.27;;;8.40;32.80;;;;;;6142502;23;20425;-87
2021/04/15 15:43:17;;;;;;;1.80;1.70;;;8.20;33.30;;;;;;6150583;23;20418;-88
2021/04/15 15:45:48;;;;;;;1.40;1.30;;;8.10;33.30;;;;;;6150623;23;20400;-88
2021/04/15 15:48:45;;;;;;;1.57;1.40;;;7.80;34.00;;;;;;6148249;23;20426;-88
2021/04/15 15:51:35;;;;;;;1.80;1.70;;;7.80;33.90;;;;;;6152376;23;20463;-89
2021/04/15 15:54:22;;;;;;;3.10;1.50;;;7.70;33.70;;;;;;6151359;23;20495;-88
2021/04/15 15:56:58;;;;;;;2.20;1.57;;;7.90;34.30;;;;;;6150234;23;20409;-88
2021/04/15 15:59:35;;;;;;;1.93;1.70;;;8.00;34.40;;;;;;6139278;23;20408;-88
2021/04/15 16:02:10;;;;;;;3.43;1.77;;;8.20;34.20;;;;;;6134822;23;20408;-88
2021/04/15 16:04:49;;;;;;;1.47;1.37;;;8.00;34.30;;;;;;6150426;23;20421;-89
2021/04/15 16:10:35;;;;;;;1.60;1.50;;;7.70;34.80;;;;;;6132479;23;20405;-89
2021/04/15 16:13:08;;;;;;;2.53;1.80;;;7.40;34.90;;;;;;6143094;23;20499;-87
2021/04/15 16:15:44;;;;;;;1.87;1.67;;;7.50;35.30;;;;;;6148376;23;20426;-87
2021/04/15 16:18:16;;;;;;;3.17;1.47;;;7.40;35.30;;;;;;6136240;23;20442;-88
2021/04/15 16:20:52;;;;;;;1.57;1.47;;;7.40;35.10;;;;;;6135164;23;20902;-88
2021/04/15 16:23:23;;;;;;;1.47;1.37;;;7.50;35.00;;;;;;6145947;23;20509;-88
2021/04/15 16:25:53;;;;;;;1.60;1.33;;;7.30;34.80;;;;;;6129542;23;21160;-88
2021/04/15 16:28:24;;;;;;;1.87;1.40;;;7.30;34.90;;;;;;6143903;23;20467;-89
2021/04/15 16:31:17;;;;;;;5.83;1.93;;;7.30;35.20;;;;;;6077424;23;20477;-89
2021/04/15 16:36:56;;;;;;;1.20;1.10;;;7.30;34.70;;;;;;6132024;23;21144;-90
2021/04/15 16:39:45;;;;;;;1.40;1.30;;;7.20;34.80;;;;;;6141454;23;20417;-89
2021/04/15 16:42:16;;;;;;;3.00;1.40;;;7.40;35.30;;;;;;6106186;23;21237;-89
2021/04/15 16:44:44;;;;;;;5.00;1.47;;;7.50;35.60;;;;;;6134023;23;20415;-90
2021/04/15 16:47:17;;;;;;;3.77;1.10;;;7.50;35.10;;;;;;6144169;23;20475;-89
2021/04/15 16:50:16;;;;;;;1.67;0.80;;;7.20;35.00;;;;;;6138907;23;20411;-89
2021/04/15 16:53:13;;;;;;;1.40;1.30;;;7.20;35.00;;;;;;6149250;23;20416;-88
2021/04/15 16:55:54;;;;;;;1.47;1.10;;;7.20;34.90;;;;;;6123201;23;20764;-89
2021/04/15 16:58:24;;;;;;;2.80;1.20;;;7.10;35.20;;;;;;6137111;23;20434;-90
2021/04/15 17:00:55;;;;;;;1.23;1.07;;;7.10;35.20;;;;;;6132336;23;20412;-89
2021/04/15 17:03:27;;;;;;;2.20;1.23;;;6.80;35.10;;;;;;6133591;23;20496;-88
2021/04/15 17:05:59;;;;;;;2.23;1.20;;;6.80;35.30;;;;;;6108493;23;20413;-89
2021/04/15 17:08:30;;;;;;;1.60;1.30;;;6.90;35.50;;;;;;6134733;23;20409;-88
2021/04/15 17:11:08;;;;;;;2.40;1.40;;;6.60;35.60;;;;;;6111715;23;20484;-89
2021/04/15 17:13:44;;;;;;;2.70;1.23;;;6.60;36.00;;;;;;6148588;23;20445;-89
2021/04/15 17:19:11;;;;;;;4.00;1.43;;;6.40;35.80;;;;;;6147662;23;20520;-89
2021/04/15 17:21:49;;;;;;;1.90;1.40;;;6.30;36.30;;;;;;6148802;23;20461;-88
2021/04/15 17:24:36;;;;;;;2.63;1.40;;;6.30;36.50;;;;;;6154918;23;20444;-88
2021/04/15 17:27:24;;;;;;;1.47;1.20;;;6.20;36.70;;;;;;6145954;23;20419;-90
2021/04/15 17:30:22;;;;;;;1.30;1.20;;;6.20;36.90;;;;;;6151508;23;20406;-88
2021/04/15 17:32:53;;;;;;;1.20;1.10;;;6.10;37.10;;;;;;6155069;23;20418;-87
2021/04/15 17:35:27;;;;;;;2.37;1.20;;;6.10;37.50;;;;;;6114013;23;20414;-88
2021/04/15 17:37:58;;;;;;;3.00;1.30;;;6.00;37.70;;;;;;6147939;23;20498;-87
2021/04/15 17:40:36;;;;;;;1.43;1.20;;;5.90;38.00;;;;;;6142408;23;20400;-89
2021/04/15 17:52:17;;;;;;;2.03;1.30;;;5.60;38.20;;;;;;6142856;23;20924;-89
2021/04/15 18:01:31;;;;;;;2.70;1.33;;;5.40;38.40;;;;;;6142692;23;20413;-89
2021/04/15 18:04:21;;;;;;;1.83;1.70;;;5.30;38.70;;;;;;6145016;23;20467;-89
2021/04/15 18:10:25;;;;;;;1.60;1.50;;;5.30;38.60;;;;;;6151249;23;20413;-88
2021/04/15 21:08:03;;;;;;;3.90;3.10;;;2.30;57.20;;;;;;6136781;23;20409;-88
2021/04/15 21:13:50;;;;;;;4.30;3.00;;;2.20;57.70;;;;;;6054166;23;20424;-87
2021/04/15 21:16:18;;;;;;;3.03;2.73;;;2.20;58.00;;;;;;6143861;23;20419;-87
2021/04/15 21:18:55;;;;;;;3.80;3.40;;;2.30;58.00;;;;;;6130817;23;20440;-88
2021/04/15 21:21:30;;;;;;;3.53;3.23;;;2.30;58.30;;;;;;6135976;23;20409;-88
2021/04/15 21:23:58;;;;;;;3.23;2.93;;;2.30;58.20;;;;;;6144030;23;20425;-88
2021/04/15 21:29:32;;;;;;;6.10;2.90;;;2.50;58.50;;;;;;6149398;23;20405;-87
2021/04/15 21:32:00;;;;;;;3.17;2.90;;;2.40;58.50;;;;;;6143292;23;20778;-87
2021/04/15 21:34:26;;;;;;;3.93;2.90;;;2.50;58.80;;;;;;6140015;23;20417;-87
2021/04/15 21:36:54;;;;;;;3.10;2.80;;;2.60;58.90;;;;;;6160577;23;20435;-88
2021/04/15 21:39:39;;;;;;;3.23;2.97;;;2.50;58.90;;;;;;6146046;23;20420;-87
2021/04/15 21:42:06;;;;;;;2.83;2.57;;;2.60;59.00;;;;;;6145749;23;20421;-87
2021/04/15 21:44:33;;;;;;;3.70;3.00;;;2.50;59.00;;;;;;6142081;23;20878;-88
2021/04/15 21:47:03;;;;;;;3.77;3.37;;;2.50;59.10;;;;;;6142015;23;20413;-86
2021/04/15 21:49:30;;;;;;;3.43;3.13;;;2.50;59.20;;;;;;6142294;23;20420;-88
2021/04/15 21:52:00;;;;;;;4.37;3.43;;;2.50;59.40;;;;;;6141172;23;20409;-87
2021/04/15 21:54:27;;;;;;;3.63;3.33;;;2.60;59.50;;;;;;6145117;23;20386;-88
2021/04/15 21:56:54;;;;;;;4.17;3.60;;;2.50;59.70;;;;;;6156154;23;20488;-88
2021/04/15 21:59:21;;;;;;;4.90;3.30;;;2.50;59.80;;;;;;6141693;23;20524;-87
2021/04/15 22:01:49;;;;;;;4.73;3.30;;;2.50;59.90;;;;;;6131623;23;20464;-87
2021/04/15 22:04:16;;;;;;;3.50;3.20;;;2.50;60.20;;;;;;6129750;23;20867;-87
2021/04/15 22:06:43;;;;;;;6.20;4.10;;;2.50;60.50;;;;;;6129935;23;20425;-86
2021/04/15 22:11:58;;;;;;;4.10;3.63;;;2.40;61.10;;;;;;6116587;23;20990;-87
2021/04/15 22:14:25;;;;;;;4.17;3.87;;;2.40;61.40;;;;;;6139389;23;20414;-88
2021/04/15 22:16:53;;;;;;;4.30;3.90;;;2.40;61.60;;;;;;6138926;23;20417;-88
2021/04/15 22:19:24;;;;;;;4.17;3.77;;;2.40;61.70;;;;;;6129961;23;20763;-88
2021/04/15 22:21:55;;;;;;;4.60;3.77;;;2.40;62.10;;;;;;6128675;23;20769;-87
2021/04/15 22:24:34;;;;;;;4.10;3.47;;;2.40;62.50;;;;;;6139473;23;20505;-88
2021/04/15 22:27:03;;;;;;;4.73;4.23;;;2.30;62.70;;;;;;6103164;23;20433;-89
2021/04/15 22:29:34;;;;;;;4.57;4.10;;;2.30;63.20;;;;;;6128217;23;20412;-87
2021/04/15 22:32:00;;;;;;;5.77;4.90;;;2.30;63.60;;;;;;6137909;23;20436;-88
2021/04/15 22:34:29;;;;;;;4.73;3.73;;;2.10;64.10;;;;;;6137349;23;20398;-88
2021/04/15 22:37:00;;;;;;;4.40;4.00;;;2.10;64.30;;;;;;6130282;23;20449;-88
2021/04/15 22:39:53;;;;;;;4.40;4.00;;;2.10;64.90;;;;;;6128929;23;20432;-87
2021/04/15 22:42:20;;;;;;;5.83;4.20;;;2.00;65.20;;;;;;6145989;23;20580;-87
2021/04/15 22:44:47;;;;;;;4.60;4.20;;;2.00;65.70;;;;;;6149419;23;20896;-87
2021/04/15 22:47:18;;;;;;;5.87;4.13;;;1.90;66.30;;;;;;6149448;23;20425;-88
2021/04/15 22:49:47;;;;;;;4.10;3.67;;;1.90;66.80;;;;;;6145499;23;20522;-88
2021/04/15 22:52:16;;;;;;;5.73;5.03;;;1.80;67.30;;;;;;6148832;23;20440;-87
2021/04/15 22:54:43;;;;;;;4.87;4.37;;;1.90;68.00;;;;;;6144016;23;20417;-87
2021/04/15 22:57:22;;;;;;;6.33;4.90;;;1.70;68.00;;;;;;6144047;23;20870;-87
2021/04/15 22:59:49;;;;;;;5.50;4.20;;;1.80;69.00;;;;;;6112111;23;20496;-87
2021/04/15 23:02:15;;;;;;;5.40;4.87;;;1.80;69.60;;;;;;6146597;23;20419;-88
2021/04/15 23:04:42;;;;;;;5.53;4.93;;;1.80;69.60;;;;;;6120081;23;20417;-87
2021/04/15 23:07:09;;;;;;;4.60;4.20;;;1.80;69.70;;;;;;6132497;23;20425;-87
2021/04/15 23:09:35;;;;;;;5.60;4.60;;;1.90;70.10;;;;;;6137770;23;20447;-89
2021/04/15 23:12:04;;;;;;;7.67;4.47;;;1.90;69.90;;;;;;6139135;23;20418;-87
2021/04/15 23:14:31;;;;;;;5.27;4.77;;;1.90;69.90;;;;;;6139617;23;20598;-88
2021/04/15 23:16:58;;;;;;;5.10;4.53;;;2.10;70.00;;;;;;6141011;23;20449;-87
2021/04/15 23:19:25;;;;;;;5.13;4.40;;;2.00;69.90;;;;;;6138728;23;20437;-87
2021/04/15 23:21:51;;;;;;;6.77;4.87;;;2.00;69.80;;;;;;6138880;23;20414;-86
2021/04/15 23:24:18;;;;;;;5.20;4.67;;;2.10;70.10;;;;;;6135901;23;20548;-87
2021/04/15 23:26:44;;;;;;;5.67;5.10;;;2.10;70.00;;;;;;6139923;23;20413;-87
2021/04/15 23:29:11;;;;;;;6.53;4.50;;;2.20;69.70;;;;;;6138201;23;20449;-87
2021/04/15 23:31:41;;;;;;;6.13;5.47;;;2.20;69.70;;;;;;6140573;23;20429;-87
2021/04/15 23:34:08;;;;;;;7.17;4.90;;;2.20;69.70;;;;;;6144455;23;20413;-87
2021/04/15 23:36:35;;;;;;;5.30;4.80;;;2.20;69.60;;;;;;6132075;23;20405;-87
2021/04/15 23:39:07;;;;;;;6.83;6.13;;;2.20;69.80;;;;;;6151119;23;20491;-88
2021/04/15 23:41:33;;;;;;;5.37;4.87;;;2.30;70.10;;;;;;6153693;23;20466;-87
2021/04/15 23:44:00;;;;;;;5.77;5.07;;;2.20;70.00;;;;;;6144772;23;20416;-87
2021/04/15 23:46:26;;;;;;;6.00;5.40;;;2.20;70.20;;;;;;6141817;23;20413;-87
2021/04/15 23:48:54;;;;;;;5.80;5.20;;;2.20;70.40;;;;;;6155327;23;20422;-87
2021/04/15 23:51:23;;;;;;;5.80;5.03;;;2.20;70.70;;;;;;6123812;23;20410;-87
2021/04/15 23:53:51;;;;;;;7.03;5.50;;;2.20;70.80;;;;;;6149111;23;20413;-86